sensor_id;sensor_type;location;lat;lon;timestamp;P1;durP1;ratioP1;P2;durP2;ratioP2
22768;SDS011;13001;51.968;5.918;2023-10-19T00:00:41;172.37;;;161.80;;
22768;SDS011;13001;51.968;5.918;2023-10-19T00:03:10;203.90;;;191.83;;
22768;SDS011;13001;51.968;5.918;2023-10-19T00:05:38;313.40;;;294.80;;
22768;SDS011;13001;51.968;5.918;2023-10-19T00:08:06;169.07;;;158.67;;
22768;SDS011;13001;51.968;5.918;2023-10-19T00:10:41;168.37;;;157.77;;
22768;SDS011;13001;51.968;5.918;2023-10-19T00:13:13;182.13;;;170.63;;
22768;SDS011;13001;51.968;5.918;2023-10-19T00:15:41;208.23;;;195.63;;
22768;SDS011;13001;51.968;5.918;2023-10-19T00:18:17;211.63;;;199.23;;
22768;SDS011;13001;51.968;5.918;2023-10-19T00:20:47;174.17;;;163.67;;
22768;SDS011;13001;51.968;5.918;2023-10-19T00:23:33;164.23;;;154.17;;
22768;SDS011;13001;51.968;5.918;2023-10-19T00:26:02;254.07;;;238.93;;
22768;SDS011;13001;51.968;5.918;2023-10-19T00:28:37;199.42;;;187.12;;
22768;SDS011;13001;51.968;5.918;2023-10-19T00:31:05;191.65;;;179.42;;
22768;SDS011;13001;51.968;5.918;2023-10-19T00:33:37;135.40;;;126.55;;
22768;SDS011;13001;51.968;5.918;2023-10-19T00:36:07;158.77;;;148.73;;
22768;SDS011;13001;51.968;5.918;2023-10-19T00:38:37;169.43;;;158.50;;
22768;SDS011;13001;51.968;5.918;2023-10-19T00:41:07;176.87;;;166.03;;
22768;SDS011;13001;51.968;5.918;2023-10-19T00:43:41;190.80;;;179.23;;
22768;SDS011;13001;51.968;5.918;2023-10-19T00:46:12;241.50;;;227.03;;
22768;SDS011;13001;51.968;5.918;2023-10-19T00:48:48;236.73;;;222.70;;
22768;SDS011;13001;51.968;5.918;2023-10-19T00:51:16;251.40;;;236.33;;
22768;SDS011;13001;51.968;5.918;2023-10-19T00:54:01;224.73;;;211.57;;
22768;SDS011;13001;51.968;5.918;2023-10-19T00:56:25;203.17;;;190.73;;
22768;SDS011;13001;51.968;5.918;2023-10-19T00:58:53;218.00;;;205.10;;
22768;SDS011;13001;51.968;5.918;2023-10-19T01:01:23;223.80;;;210.00;;
22768;SDS011;13001;51.968;5.918;2023-10-19T01:03:51;209.80;;;197.00;;
22768;SDS011;13001;51.968;5.918;2023-10-19T01:06:20;212.77;;;199.70;;
22768;SDS011;13001;51.968;5.918;2023-10-19T01:08:47;219.60;;;206.27;;
22768;SDS011;13001;51.968;5.918;2023-10-19T01:11:16;211.73;;;198.83;;
22768;SDS011;13001;51.968;5.918;2023-10-19T01:13:47;234.47;;;220.23;;
22768;SDS011;13001;51.968;5.918;2023-10-19T01:16:15;204.50;;;191.77;;
22768;SDS011;13001;51.968;5.918;2023-10-19T01:18:50;204.33;;;191.57;;
22768;SDS011;13001;51.968;5.918;2023-10-19T01:21:21;203.47;;;190.93;;
22768;SDS011;13001;51.968;5.918;2023-10-19T01:23:50;205.70;;;193.27;;
22768;SDS011;13001;51.968;5.918;2023-10-19T01:26:19;231.00;;;216.17;;
22768;SDS011;13001;51.968;5.918;2023-10-19T01:28:51;178.05;;;166.30;;
22768;SDS011;13001;51.968;5.918;2023-10-19T01:31:20;169.10;;;158.60;;
22768;SDS011;13001;51.968;5.918;2023-10-19T01:33:58;174.80;;;164.10;;
22768;SDS011;13001;51.968;5.918;2023-10-19T01:36:27;183.23;;;172.07;;
22768;SDS011;13001;51.968;5.918;2023-10-19T01:38:55;186.27;;;174.93;;
22768;SDS011;13001;51.968;5.918;2023-10-19T01:41:25;198.23;;;186.13;;
22768;SDS011;13001;51.968;5.918;2023-10-19T01:43:53;197.87;;;185.53;;
22768;SDS011;13001;51.968;5.918;2023-10-19T01:46:21;196.20;;;184.07;;
22768;SDS011;13001;51.968;5.918;2023-10-19T01:48:51;196.97;;;185.13;;
22768;SDS011;13001;51.968;5.918;2023-10-19T01:51:25;189.40;;;177.77;;
22768;SDS011;13001;51.968;5.918;2023-10-19T01:53:53;183.40;;;172.10;;
22768;SDS011;13001;51.968;5.918;2023-10-19T01:56:21;192.63;;;180.87;;
22768;SDS011;13001;51.968;5.918;2023-10-19T01:58:49;190.00;;;178.13;;
22768;SDS011;13001;51.968;5.918;2023-10-19T02:01:18;175.83;;;164.70;;
22768;SDS011;13001;51.968;5.918;2023-10-19T02:03:49;186.40;;;174.93;;
22768;SDS011;13001;51.968;5.918;2023-10-19T02:06:21;191.93;;;179.97;;
22768;SDS011;13001;51.968;5.918;2023-10-19T02:08:59;182.87;;;171.47;;
22768;SDS011;13001;51.968;5.918;2023-10-19T02:11:27;181.40;;;170.20;;
22768;SDS011;13001;51.968;5.918;2023-10-19T02:13:55;172.63;;;161.70;;
22768;SDS011;13001;51.968;5.918;2023-10-19T02:16:24;171.30;;;160.67;;
22768;SDS011;13001;51.968;5.918;2023-10-19T02:18:53;177.17;;;166.33;;
22768;SDS011;13001;51.968;5.918;2023-10-19T02:21:20;174.87;;;164.37;;
22768;SDS011;13001;51.968;5.918;2023-10-19T02:23:55;193.57;;;181.60;;
22768;SDS011;13001;51.968;5.918;2023-10-19T02:26:23;179.60;;;168.23;;
22768;SDS011;13001;51.968;5.918;2023-10-19T02:28:52;180.17;;;168.63;;
22768;SDS011;13001;51.968;5.918;2023-10-19T02:31:22;189.63;;;177.97;;
22768;SDS011;13001;51.968;5.918;2023-10-19T02:33:52;210.50;;;197.80;;
22768;SDS011;13001;51.968;5.918;2023-10-19T02:36:21;199.80;;;187.10;;
22768;SDS011;13001;51.968;5.918;2023-10-19T02:38:48;181.73;;;170.47;;
22768;SDS011;13001;51.968;5.918;2023-10-19T02:41:17;190.10;;;178.33;;
22768;SDS011;13001;51.968;5.918;2023-10-19T02:43:48;163.40;;;153.23;;
22768;SDS011;13001;51.968;5.918;2023-10-19T02:46:20;172.97;;;162.30;;
22768;SDS011;13001;51.968;5.918;2023-10-19T02:48:47;189.23;;;177.83;;
22768;SDS011;13001;51.968;5.918;2023-10-19T02:51:16;195.63;;;183.60;;
22768;SDS011;13001;51.968;5.918;2023-10-19T02:53:45;162.60;;;152.23;;
22768;SDS011;13001;51.968;5.918;2023-10-19T02:56:13;224.23;;;210.80;;
22768;SDS011;13001;51.968;5.918;2023-10-19T02:58:45;228.63;;;215.00;;
22768;SDS011;13001;51.968;5.918;2023-10-19T03:01:20;195.70;;;183.97;;
22768;SDS011;13001;51.968;5.918;2023-10-19T03:03:45;152.67;;;143.00;;
22768;SDS011;13001;51.968;5.918;2023-10-19T03:06:12;154.87;;;144.93;;
22768;SDS011;13001;51.968;5.918;2023-10-19T03:08:40;186.93;;;175.37;;
22768;SDS011;13001;51.968;5.918;2023-10-19T03:11:07;158.57;;;148.37;;
22768;SDS011;13001;51.968;5.918;2023-10-19T03:13:35;183.70;;;172.60;;
22768;SDS011;13001;51.968;5.918;2023-10-19T03:16:03;159.70;;;149.77;;
22768;SDS011;13001;51.968;5.918;2023-10-19T03:18:32;141.63;;;132.07;;
22768;SDS011;13001;51.968;5.918;2023-10-19T03:21:00;136.37;;;127.33;;
22768;SDS011;13001;51.968;5.918;2023-10-19T03:23:27;139.43;;;130.47;;
22768;SDS011;13001;51.968;5.918;2023-10-19T03:25:56;201.62;;;188.47;;
22768;SDS011;13001;51.968;5.918;2023-10-19T03:28:25;161.05;;;150.47;;
22768;SDS011;13001;51.968;5.918;2023-10-19T03:30:52;150.25;;;140.60;;
22768;SDS011;13001;51.968;5.918;2023-10-19T03:33:21;138.97;;;130.15;;
22768;SDS011;13001;51.968;5.918;2023-10-19T03:35:53;91.67;;;85.50;;
22768;SDS011;13001;51.968;5.918;2023-10-19T03:38:20;84.97;;;79.70;;
22768;SDS011;13001;51.968;5.918;2023-10-19T03:40:49;167.57;;;157.30;;
22768;SDS011;13001;51.968;5.918;2023-10-19T03:43:20;130.77;;;122.70;;
22768;SDS011;13001;51.968;5.918;2023-10-19T03:45:49;121.27;;;113.77;;
22768;SDS011;13001;51.968;5.918;2023-10-19T03:48:19;89.93;;;84.50;;
22768;SDS011;13001;51.968;5.918;2023-10-19T03:50:49;76.27;;;71.33;;
22768;SDS011;13001;51.968;5.918;2023-10-19T03:53:18;69.13;;;64.77;;
22768;SDS011;13001;51.968;5.918;2023-10-19T03:55:47;69.07;;;64.17;;
22768;SDS011;13001;51.968;5.918;2023-10-19T03:58:16;64.67;;;60.33;;
22768;SDS011;13001;51.968;5.918;2023-10-19T04:00:46;63.60;;;59.87;;
22768;SDS011;13001;51.968;5.918;2023-10-19T04:03:15;67.73;;;63.37;;
22768;SDS011;13001;51.968;5.918;2023-10-19T04:05:44;77.10;;;71.90;;
22768;SDS011;13001;51.968;5.918;2023-10-19T04:08:15;78.33;;;73.23;;
22768;SDS011;13001;51.968;5.918;2023-10-19T04:10:44;90.30;;;84.77;;
22768;SDS011;13001;51.968;5.918;2023-10-19T04:13:13;95.70;;;89.43;;
22768;SDS011;13001;51.968;5.918;2023-10-19T04:15:40;98.60;;;92.60;;
22768;SDS011;13001;51.968;5.918;2023-10-19T04:18:08;92.83;;;87.23;;
22768;SDS011;13001;51.968;5.918;2023-10-19T04:20:35;101.20;;;94.63;;
22768;SDS011;13001;51.968;5.918;2023-10-19T04:23:04;100.67;;;94.53;;
22768;SDS011;13001;51.968;5.918;2023-10-19T04:25:36;100.40;;;94.07;;
22768;SDS011;13001;51.968;5.918;2023-10-19T04:28:03;109.00;;;102.40;;
22768;SDS011;13001;51.968;5.918;2023-10-19T04:30:31;111.63;;;104.90;;
22768;SDS011;13001;51.968;5.918;2023-10-19T04:32:59;101.67;;;95.60;;
22768;SDS011;13001;51.968;5.918;2023-10-19T04:35:28;102.37;;;96.00;;
22768;SDS011;13001;51.968;5.918;2023-10-19T04:38:00;103.53;;;97.40;;
22768;SDS011;13001;51.968;5.918;2023-10-19T04:40:27;105.60;;;98.73;;
22768;SDS011;13001;51.968;5.918;2023-10-19T04:42:54;101.43;;;95.23;;
22768;SDS011;13001;51.968;5.918;2023-10-19T04:45:21;110.23;;;103.60;;
22768;SDS011;13001;51.968;5.918;2023-10-19T04:47:52;112.70;;;106.13;;
22768;SDS011;13001;51.968;5.918;2023-10-19T04:50:21;102.87;;;96.53;;
22768;SDS011;13001;51.968;5.918;2023-10-19T04:52:48;98.63;;;92.47;;
22768;SDS011;13001;51.968;5.918;2023-10-19T04:55:15;91.43;;;85.90;;
22768;SDS011;13001;51.968;5.918;2023-10-19T04:57:43;107.67;;;100.60;;
22768;SDS011;13001;51.968;5.918;2023-10-19T05:00:10;110.97;;;103.70;;
22768;SDS011;13001;51.968;5.918;2023-10-19T05:02:41;106.40;;;99.50;;
22768;SDS011;13001;51.968;5.918;2023-10-19T05:05:09;100.10;;;93.40;;
22768;SDS011;13001;51.968;5.918;2023-10-19T05:07:36;93.07;;;87.00;;
22768;SDS011;13001;51.968;5.918;2023-10-19T05:10:04;88.43;;;82.97;;
22768;SDS011;13001;51.968;5.918;2023-10-19T05:12:31;88.60;;;83.13;;
22768;SDS011;13001;51.968;5.918;2023-10-19T05:14:59;85.73;;;80.13;;
22768;SDS011;13001;51.968;5.918;2023-10-19T05:17:26;85.83;;;80.50;;
22768;SDS011;13001;51.968;5.918;2023-10-19T05:19:53;92.13;;;86.23;;
22768;SDS011;13001;51.968;5.918;2023-10-19T05:22:23;95.10;;;89.23;;
22768;SDS011;13001;51.968;5.918;2023-10-19T05:24:52;94.97;;;88.57;;
22768;SDS011;13001;51.968;5.918;2023-10-19T05:27:19;95.57;;;89.50;;
22768;SDS011;13001;51.968;5.918;2023-10-19T05:29:46;104.50;;;97.80;;
22768;SDS011;13001;51.968;5.918;2023-10-19T05:32:14;121.53;;;114.10;;
22768;SDS011;13001;51.968;5.918;2023-10-19T05:34:41;121.83;;;114.43;;
22768;SDS011;13001;51.968;5.918;2023-10-19T05:37:08;112.23;;;105.20;;
22768;SDS011;13001;51.968;5.918;2023-10-19T05:39:36;104.50;;;97.93;;
22768;SDS011;13001;51.968;5.918;2023-10-19T05:42:05;112.37;;;104.93;;
22768;SDS011;13001;51.968;5.918;2023-10-19T05:44:32;110.30;;;103.17;;
22768;SDS011;13001;51.968;5.918;2023-10-19T05:47:01;124.43;;;116.87;;
22768;SDS011;13001;51.968;5.918;2023-10-19T05:49:29;121.33;;;113.90;;
22768;SDS011;13001;51.968;5.918;2023-10-19T05:51:56;132.77;;;124.50;;
22768;SDS011;13001;51.968;5.918;2023-10-19T05:54:24;125.80;;;117.83;;
22768;SDS011;13001;51.968;5.918;2023-10-19T05:56:51;130.22;;;121.97;;
22768;SDS011;13001;51.968;5.918;2023-10-19T05:59:19;102.62;;;96.00;;
22768;SDS011;13001;51.968;5.918;2023-10-19T06:01:46;88.60;;;83.00;;
22768;SDS011;13001;51.968;5.918;2023-10-19T06:04:14;86.47;;;80.87;;
22768;SDS011;13001;51.968;5.918;2023-10-19T06:09:28;83.47;;;78.33;;
22768;SDS011;13001;51.968;5.918;2023-10-19T06:11:58;80.97;;;75.87;;
22768;SDS011;13001;51.968;5.918;2023-10-19T06:14:27;82.37;;;77.35;;
22768;SDS011;13001;51.968;5.918;2023-10-19T06:16:55;81.25;;;76.35;;
22768;SDS011;13001;51.968;5.918;2023-10-19T06:19:23;86.37;;;81.15;;
22768;SDS011;13001;51.968;5.918;2023-10-19T06:21:50;88.33;;;83.03;;
22768;SDS011;13001;51.968;5.918;2023-10-19T06:24:17;101.72;;;95.42;;
22768;SDS011;13001;51.968;5.918;2023-10-19T06:26:45;40.97;;;38.27;;
22768;SDS011;13001;51.968;5.918;2023-10-19T06:29:12;32.87;;;30.80;;
22768;SDS011;13001;51.968;5.918;2023-10-19T06:31:39;28.50;;;26.47;;
22768;SDS011;13001;51.968;5.918;2023-10-19T06:34:07;28.53;;;26.10;;
22768;SDS011;13001;51.968;5.918;2023-10-19T06:36:34;27.20;;;25.20;;
22768;SDS011;13001;51.968;5.918;2023-10-19T06:39:01;25.20;;;23.30;;
22768;SDS011;13001;51.968;5.918;2023-10-19T06:41:30;33.23;;;30.80;;
22768;SDS011;13001;51.968;5.918;2023-10-19T06:43:57;30.23;;;28.07;;
22768;SDS011;13001;51.968;5.918;2023-10-19T06:46:25;33.90;;;31.17;;
22768;SDS011;13001;51.968;5.918;2023-10-19T06:48:53;34.57;;;32.23;;
22768;SDS011;13001;51.968;5.918;2023-10-19T06:51:22;45.37;;;42.10;;
22768;SDS011;13001;51.968;5.918;2023-10-19T06:53:50;43.40;;;40.43;;
22768;SDS011;13001;51.968;5.918;2023-10-19T06:56:18;44.10;;;40.70;;
22768;SDS011;13001;51.968;5.918;2023-10-19T06:58:46;45.73;;;42.80;;
22768;SDS011;13001;51.968;5.918;2023-10-19T07:01:14;45.77;;;42.67;;
22768;SDS011;13001;51.968;5.918;2023-10-19T07:03:43;48.90;;;45.10;;
22768;SDS011;13001;51.968;5.918;2023-10-19T07:06:10;52.03;;;48.77;;
22768;SDS011;13001;51.968;5.918;2023-10-19T07:08:40;50.77;;;47.77;;
22768;SDS011;13001;51.968;5.918;2023-10-19T07:11:10;52.53;;;48.87;;
22768;SDS011;13001;51.968;5.918;2023-10-19T07:13:37;47.67;;;43.43;;
22768;SDS011;13001;51.968;5.918;2023-10-19T07:16:06;49.70;;;46.40;;
22768;SDS011;13001;51.968;5.918;2023-10-19T07:18:35;89.42;;;83.82;;
22768;SDS011;13001;51.968;5.918;2023-10-19T07:21:03;47.30;;;44.30;;
22768;SDS011;13001;51.968;5.918;2023-10-19T07:23:31;85.80;;;80.53;;
22768;SDS011;13001;51.968;5.918;2023-10-19T07:25:58;66.47;;;62.43;;
22768;SDS011;13001;51.968;5.918;2023-10-19T07:28:28;63.90;;;59.98;;
22768;SDS011;13001;51.968;5.918;2023-10-19T07:30:57;70.30;;;65.75;;
22768;SDS011;13001;51.968;5.918;2023-10-19T07:33:26;66.62;;;62.40;;
22768;SDS011;13001;51.968;5.918;2023-10-19T07:35:54;73.45;;;68.97;;
22768;SDS011;13001;51.968;5.918;2023-10-19T07:38:22;80.77;;;75.67;;
22768;SDS011;13001;51.968;5.918;2023-10-19T07:40:49;79.90;;;74.62;;
22768;SDS011;13001;51.968;5.918;2023-10-19T07:43:19;20.37;;;18.47;;
22768;SDS011;13001;51.968;5.918;2023-10-19T07:45:47;15.47;;;13.13;;
22768;SDS011;13001;51.968;5.918;2023-10-19T07:48:15;13.50;;;12.30;;
22768;SDS011;13001;51.968;5.918;2023-10-19T07:50:43;12.27;;;10.97;;
22768;SDS011;13001;51.968;5.918;2023-10-19T07:53:10;10.70;;;8.90;;
22768;SDS011;13001;51.968;5.918;2023-10-19T07:55:37;11.47;;;8.87;;
22768;SDS011;13001;51.968;5.918;2023-10-19T07:58:09;10.70;;;9.30;;
22768;SDS011;13001;51.968;5.918;2023-10-19T08:00:37;11.37;;;8.60;;
22768;SDS011;13001;51.968;5.918;2023-10-19T08:03:05;12.17;;;8.60;;
22768;SDS011;13001;51.968;5.918;2023-10-19T08:05:34;12.17;;;8.37;;
22768;SDS011;13001;51.968;5.918;2023-10-19T08:08:01;14.23;;;8.83;;
22768;SDS011;13001;51.968;5.918;2023-10-19T08:10:30;40.95;;;37.90;;
22768;SDS011;13001;51.968;5.918;2023-10-19T08:12:58;44.70;;;41.75;;
22768;SDS011;13001;51.968;5.918;2023-10-19T08:15:25;53.65;;;49.85;;
22768;SDS011;13001;51.968;5.918;2023-10-19T08:17:52;63.55;;;58.10;;
22768;SDS011;13001;51.968;5.918;2023-10-19T08:20:22;74.05;;;69.27;;
22768;SDS011;13001;51.968;5.918;2023-10-19T08:22:53;78.05;;;73.12;;
22768;SDS011;13001;51.968;5.918;2023-10-19T08:25:28;84.40;;;79.25;;
22768;SDS011;13001;51.968;5.918;2023-10-19T08:27:58;78.02;;;73.00;;
22768;SDS011;13001;51.968;5.918;2023-10-19T08:30:25;82.90;;;77.62;;
22768;SDS011;13001;51.968;5.918;2023-10-19T08:32:53;80.30;;;75.20;;
22768;SDS011;13001;51.968;5.918;2023-10-19T08:35:20;13.07;;;11.87;;
22768;SDS011;13001;51.968;5.918;2023-10-19T08:37:50;13.10;;;11.17;;
22768;SDS011;13001;51.968;5.918;2023-10-19T08:40:17;13.67;;;11.20;;
22768;SDS011;13001;51.968;5.918;2023-10-19T08:42:45;12.50;;;11.33;;
22768;SDS011;13001;51.968;5.918;2023-10-19T08:45:13;17.87;;;12.53;;
22768;SDS011;13001;51.968;5.918;2023-10-19T08:47:42;14.50;;;13.00;;
22768;SDS011;13001;51.968;5.918;2023-10-19T08:50:09;17.07;;;11.80;;
22768;SDS011;13001;51.968;5.918;2023-10-19T08:52:39;15.10;;;13.53;;
22768;SDS011;13001;51.968;5.918;2023-10-19T08:55:08;16.03;;;14.53;;
22768;SDS011;13001;51.968;5.918;2023-10-19T08:57:39;15.43;;;13.87;;
22768;SDS011;13001;51.968;5.918;2023-10-19T09:00:07;16.27;;;13.67;;
22768;SDS011;13001;51.968;5.918;2023-10-19T09:02:34;13.97;;;12.57;;
22768;SDS011;13001;51.968;5.918;2023-10-19T09:05:08;13.70;;;12.33;;
22768;SDS011;13001;51.968;5.918;2023-10-19T09:07:37;16.87;;;15.20;;
22768;SDS011;13001;51.968;5.918;2023-10-19T09:10:06;22.80;;;14.23;;
22768;SDS011;13001;51.968;5.918;2023-10-19T09:12:35;17.67;;;14.43;;
22768;SDS011;13001;51.968;5.918;2023-10-19T09:15:03;22.20;;;18.73;;
22768;SDS011;13001;51.968;5.918;2023-10-19T09:17:31;21.87;;;19.97;;
22768;SDS011;13001;51.968;5.918;2023-10-19T09:19:59;19.10;;;17.53;;
22768;SDS011;13001;51.968;5.918;2023-10-19T09:22:34;17.33;;;15.73;;
22768;SDS011;13001;51.968;5.918;2023-10-19T09:25:04;18.60;;;16.07;;
22768;SDS011;13001;51.968;5.918;2023-10-19T09:27:33;20.63;;;18.77;;
22768;SDS011;13001;51.968;5.918;2023-10-19T09:30:00;19.27;;;17.50;;
22768;SDS011;13001;51.968;5.918;2023-10-19T09:32:30;18.03;;;16.43;;
22768;SDS011;13001;51.968;5.918;2023-10-19T09:34:59;26.97;;;16.47;;
22768;SDS011;13001;51.968;5.918;2023-10-19T09:37:26;18.70;;;16.73;;
22768;SDS011;13001;51.968;5.918;2023-10-19T09:39:55;20.17;;;18.40;;
22768;SDS011;13001;51.968;5.918;2023-10-19T09:42:23;21.03;;;19.20;;
22768;SDS011;13001;51.968;5.918;2023-10-19T09:44:54;43.50;;;40.50;;
22768;SDS011;13001;51.968;5.918;2023-10-19T09:47:26;53.17;;;48.90;;
22768;SDS011;13001;51.968;5.918;2023-10-19T09:49:52;18.55;;;17.37;;
22768;SDS011;13001;51.968;5.918;2023-10-19T09:52:20;21.60;;;19.77;;
22768;SDS011;13001;51.968;5.918;2023-10-19T09:55:01;18.70;;;17.17;;
22768;SDS011;13001;51.968;5.918;2023-10-19T09:57:31;18.17;;;16.63;;
22768;SDS011;13001;51.968;5.918;2023-10-19T09:59:59;17.40;;;16.00;;
22768;SDS011;13001;51.968;5.918;2023-10-19T10:02:25;17.90;;;16.32;;
22768;SDS011;13001;51.968;5.918;2023-10-19T10:04:54;61.70;;;57.58;;
22768;SDS011;13001;51.968;5.918;2023-10-19T10:07:23;28.77;;;26.57;;
22768;SDS011;13001;51.968;5.918;2023-10-19T10:09:51;42.15;;;39.05;;
22768;SDS011;13001;51.968;5.918;2023-10-19T10:12:20;57.88;;;54.15;;
22768;SDS011;13001;51.968;5.918;2023-10-19T10:14:57;59.25;;;55.25;;
22768;SDS011;13001;51.968;5.918;2023-10-19T10:17:25;62.15;;;57.55;;
22768;SDS011;13001;51.968;5.918;2023-10-19T10:20:40;55.43;;;51.53;;
22768;SDS011;13001;51.968;5.918;2023-10-19T10:22:26;63.48;;;59.75;;
22768;SDS011;13001;51.968;5.918;2023-10-19T10:24:54;65.67;;;61.02;;
22768;SDS011;13001;51.968;5.918;2023-10-19T10:27:22;64.87;;;60.73;;
22768;SDS011;13001;51.968;5.918;2023-10-19T10:30:00;67.60;;;63.30;;
22768;SDS011;13001;51.968;5.918;2023-10-19T10:32:44;63.90;;;60.00;;
22768;SDS011;13001;51.968;5.918;2023-10-19T10:35:53;71.07;;;66.60;;
22768;SDS011;13001;51.968;5.918;2023-10-19T10:37:45;64.42;;;59.45;;
22768;SDS011;13001;51.968;5.918;2023-10-19T10:40:11;64.05;;;59.73;;
22768;SDS011;13001;51.968;5.918;2023-10-19T10:42:40;58.08;;;54.35;;
22768;SDS011;13001;51.968;5.918;2023-10-19T10:45:18;56.40;;;52.33;;
22768;SDS011;13001;51.968;5.918;2023-10-19T10:47:44;53.33;;;49.83;;
22768;SDS011;13001;51.968;5.918;2023-10-19T10:50:10;50.83;;;46.98;;
22768;SDS011;13001;51.968;5.918;2023-10-19T10:52:37;51.68;;;48.65;;
22768;SDS011;13001;51.968;5.918;2023-10-19T10:55:11;50.50;;;47.00;;
22768;SDS011;13001;51.968;5.918;2023-10-19T10:57:36;48.90;;;45.80;;
22768;SDS011;13001;51.968;5.918;2023-10-19T11:00:10;46.95;;;43.65;;
22768;SDS011;13001;51.968;5.918;2023-10-19T11:02:38;49.53;;;46.33;;
22768;SDS011;13001;51.968;5.918;2023-10-19T11:05:07;47.62;;;43.78;;
22768;SDS011;13001;51.968;5.918;2023-10-19T11:07:36;46.85;;;43.65;;
22768;SDS011;13001;51.968;5.918;2023-10-19T11:10:03;47.20;;;43.78;;
22768;SDS011;13001;51.968;5.918;2023-10-19T11:12:31;44.08;;;40.80;;
22768;SDS011;13001;51.968;5.918;2023-10-19T11:14:59;46.60;;;43.28;;
22768;SDS011;13001;51.968;5.918;2023-10-19T11:17:30;47.67;;;44.67;;
22768;SDS011;13001;51.968;5.918;2023-10-19T11:19:58;42.13;;;39.18;;
22768;SDS011;13001;51.968;5.918;2023-10-19T11:22:25;44.60;;;41.77;;
22768;SDS011;13001;51.968;5.918;2023-10-19T11:25:16;46.50;;;43.23;;
22768;SDS011;13001;51.968;5.918;2023-10-19T11:27:30;47.80;;;44.67;;
22768;SDS011;13001;51.968;5.918;2023-10-19T11:29:58;49.40;;;46.37;;
22768;SDS011;13001;51.968;5.918;2023-10-19T11:32:35;47.53;;;44.23;;
22768;SDS011;13001;51.968;5.918;2023-10-19T11:34:57;48.00;;;44.90;;
22768;SDS011;13001;51.968;5.918;2023-10-19T11:37:24;50.20;;;46.85;;
22768;SDS011;13001;51.968;5.918;2023-10-19T11:39:51;50.15;;;46.88;;
22768;SDS011;13001;51.968;5.918;2023-10-19T11:42:18;45.48;;;42.23;;
22768;SDS011;13001;51.968;5.918;2023-10-19T11:44:46;50.83;;;47.27;;
22768;SDS011;13001;51.968;5.918;2023-10-19T11:47:13;47.20;;;44.10;;
22768;SDS011;13001;51.968;5.918;2023-10-19T11:49:41;42.78;;;38.78;;
22768;SDS011;13001;51.968;5.918;2023-10-19T11:52:10;42.73;;;39.75;;
22768;SDS011;13001;51.968;5.918;2023-10-19T11:54:37;40.60;;;37.73;;
22768;SDS011;13001;51.968;5.918;2023-10-19T11:57:04;39.70;;;36.83;;
22768;SDS011;13001;51.968;5.918;2023-10-19T11:59:32;44.03;;;41.08;;
22768;SDS011;13001;51.968;5.918;2023-10-19T12:01:59;37.55;;;35.00;;
22768;SDS011;13001;51.968;5.918;2023-10-19T12:04:28;39.10;;;35.92;;
22768;SDS011;13001;51.968;5.918;2023-10-19T12:06:55;40.20;;;37.48;;
22768;SDS011;13001;51.968;5.918;2023-10-19T12:09:23;41.45;;;38.25;;
22768;SDS011;13001;51.968;5.918;2023-10-19T12:11:51;39.15;;;36.20;;
22768;SDS011;13001;51.968;5.918;2023-10-19T12:14:20;39.23;;;36.33;;
22768;SDS011;13001;51.968;5.918;2023-10-19T12:16:47;40.28;;;37.20;;
22768;SDS011;13001;51.968;5.918;2023-10-19T12:19:14;40.63;;;38.00;;
22768;SDS011;13001;51.968;5.918;2023-10-19T12:21:43;38.55;;;36.13;;
22768;SDS011;13001;51.968;5.918;2023-10-19T12:24:11;40.28;;;37.17;;
22768;SDS011;13001;51.968;5.918;2023-10-19T12:26:38;39.13;;;36.17;;
22768;SDS011;13001;51.968;5.918;2023-10-19T12:29:05;40.40;;;37.40;;
22768;SDS011;13001;51.968;5.918;2023-10-19T12:31:34;34.38;;;31.97;;
22768;SDS011;13001;51.968;5.918;2023-10-19T12:34:01;31.90;;;28.62;;
22768;SDS011;13001;51.968;5.918;2023-10-19T12:36:28;28.60;;;26.33;;
22768;SDS011;13001;51.968;5.918;2023-10-19T12:38:58;26.45;;;24.55;;
22768;SDS011;13001;51.968;5.918;2023-10-19T12:41:26;29.30;;;27.02;;
22768;SDS011;13001;51.968;5.918;2023-10-19T12:43:54;26.03;;;23.90;;
22768;SDS011;13001;51.968;5.918;2023-10-19T12:46:26;23.22;;;20.92;;
22768;SDS011;13001;51.968;5.918;2023-10-19T12:48:57;23.18;;;21.17;;
22768;SDS011;13001;51.968;5.918;2023-10-19T12:51:25;26.70;;;24.55;;
22768;SDS011;13001;51.968;5.918;2023-10-19T12:53:53;23.85;;;21.60;;
22768;SDS011;13001;51.968;5.918;2023-10-19T12:56:21;22.60;;;19.10;;
22768;SDS011;13001;51.968;5.918;2023-10-19T12:58:53;27.55;;;24.82;;
22768;SDS011;13001;51.968;5.918;2023-10-19T13:01:21;23.45;;;19.85;;
22768;SDS011;13001;51.968;5.918;2023-10-19T13:03:48;22.40;;;19.20;;
22768;SDS011;13001;51.968;5.918;2023-10-19T13:06:17;22.13;;;20.03;;
22768;SDS011;13001;51.968;5.918;2023-10-19T13:08:45;19.37;;;17.77;;
22768;SDS011;13001;51.968;5.918;2023-10-19T13:11:13;23.03;;;21.07;;
22768;SDS011;13001;51.968;5.918;2023-10-19T13:13:41;21.30;;;19.33;;
22768;SDS011;13001;51.968;5.918;2023-10-19T13:16:08;19.97;;;17.97;;
22768;SDS011;13001;51.968;5.918;2023-10-19T13:18:35;20.10;;;18.13;;
22768;SDS011;13001;51.968;5.918;2023-10-19T13:21:03;21.10;;;19.27;;
22768;SDS011;13001;51.968;5.918;2023-10-19T13:23:32;18.40;;;16.80;;
22768;SDS011;13001;51.968;5.918;2023-10-19T13:26:05;21.57;;;18.33;;
22768;SDS011;13001;51.968;5.918;2023-10-19T13:28:46;23.60;;;21.20;;
22768;SDS011;13001;51.968;5.918;2023-10-19T13:31:15;20.80;;;19.30;;
22768;SDS011;13001;51.968;5.918;2023-10-19T13:33:43;24.27;;;22.23;;
22768;SDS011;13001;51.968;5.918;2023-10-19T13:36:12;27.07;;;20.33;;
22768;SDS011;13001;51.968;5.918;2023-10-19T13:38:39;22.43;;;20.47;;
22768;SDS011;13001;51.968;5.918;2023-10-19T13:41:07;23.10;;;20.80;;
22768;SDS011;13001;51.968;5.918;2023-10-19T13:43:36;21.13;;;18.73;;
22768;SDS011;13001;51.968;5.918;2023-10-19T13:46:03;23.30;;;20.97;;
22768;SDS011;13001;51.968;5.918;2023-10-19T13:48:31;18.67;;;16.87;;
22768;SDS011;13001;51.968;5.918;2023-10-19T13:50:58;20.70;;;17.63;;
22768;SDS011;13001;51.968;5.918;2023-10-19T13:53:30;21.00;;;17.40;;
22768;SDS011;13001;51.968;5.918;2023-10-19T13:55:57;19.10;;;17.37;;
22768;SDS011;13001;51.968;5.918;2023-10-19T13:58:24;39.00;;;36.00;;
22768;SDS011;13001;51.968;5.918;2023-10-19T14:00:52;38.42;;;35.48;;
22768;SDS011;13001;51.968;5.918;2023-10-19T14:03:19;28.38;;;25.68;;
22768;SDS011;13001;51.968;5.918;2023-10-19T14:05:47;23.18;;;20.88;;
22768;SDS011;13001;51.968;5.918;2023-10-19T14:08:15;22.13;;;20.17;;
22768;SDS011;13001;51.968;5.918;2023-10-19T14:10:43;18.57;;;16.67;;
22768;SDS011;13001;51.968;5.918;2023-10-19T14:13:10;20.25;;;18.27;;
22768;SDS011;13001;51.968;5.918;2023-10-19T14:15:43;17.25;;;14.45;;
22768;SDS011;13001;51.968;5.918;2023-10-19T14:18:11;16.62;;;14.78;;
22768;SDS011;13001;51.968;5.918;2023-10-19T14:20:40;14.58;;;13.15;;
22768;SDS011;13001;51.968;5.918;2023-10-19T14:23:07;15.48;;;13.98;;
22768;SDS011;13001;51.968;5.918;2023-10-19T14:25:37;15.85;;;14.33;;